createdAt,value
2022-08-30T00:02:22.086Z,17.80
2022-08-30T00:06:07.959Z,17.80
2022-08-30T00:09:49.813Z,17.70
2022-08-30T00:13:31.862Z,17.70
2022-08-30T00:17:13.853Z,17.70
2022-08-30T00:20:56.209Z,17.60
2022-08-30T00:24:38.442Z,17.60
2022-08-30T00:28:20.755Z,17.50
2022-08-30T00:32:02.903Z,17.40
2022-08-30T00:35:44.776Z,17.40
2022-08-30T00:39:27.106Z,17.40
2022-08-30T00:43:14.673Z,17.30
2022-08-30T00:46:56.694Z,17.20
2022-08-30T00:50:43.240Z,17.20
2022-08-30T00:54:26.281Z,17.20
2022-08-30T00:58:12.990Z,17.10
2022-08-30T01:01:55.269Z,17.00
2022-08-30T01:05:38.786Z,17.00
2022-08-30T01:09:21.137Z,17.00
2022-08-30T01:13:03.609Z,16.90
2022-08-30T01:16:46.387Z,16.80
2022-08-30T01:20:37.290Z,16.80
2022-08-30T01:24:20.007Z,16.80
2022-08-30T01:28:06.748Z,16.70
2022-08-30T01:31:49.450Z,16.70
2022-08-30T01:35:53.466Z,16.60
2022-08-30T01:39:35.514Z,16.60
2022-08-30T01:43:19.480Z,16.50
2022-08-30T01:47:01.530Z,16.50
2022-08-30T01:50:43.621Z,16.40
2022-08-30T01:54:27.329Z,16.40
2022-08-30T01:58:15.214Z,16.30
2022-08-30T02:01:57.223Z,16.30
2022-08-30T02:05:39.356Z,16.20
2022-08-30T02:09:21.349Z,16.20
2022-08-30T02:13:04.948Z,16.10
2022-08-30T02:16:47.426Z,16.10
2022-08-30T02:20:29.308Z,16.00
2022-08-30T02:24:11.189Z,16.00
2022-08-30T02:27:53.186Z,16.00
2022-08-30T02:31:35.543Z,15.90
2022-08-30T02:35:17.412Z,15.90
2022-08-30T02:38:59.355Z,15.80
2022-08-30T02:42:41.825Z,15.80
2022-08-30T02:46:23.766Z,15.80
2022-08-30T02:50:07.555Z,15.70
2022-08-30T02:53:50.007Z,15.70
2022-08-30T02:57:31.922Z,15.60
2022-08-30T03:01:15.698Z,15.60
2022-08-30T03:04:57.751Z,15.50
2022-08-30T03:08:39.696Z,15.50
2022-08-30T03:12:22.118Z,15.40
2022-08-30T03:16:04.265Z,15.40
2022-08-30T03:19:46.713Z,15.30
2022-08-30T03:23:28.871Z,15.30
2022-08-30T03:27:10.700Z,15.20
2022-08-30T03:30:52.773Z,15.20
2022-08-30T03:34:34.735Z,15.20
2022-08-30T03:38:17.330Z,15.10
2022-08-30T03:41:59.359Z,15.10
2022-08-30T03:45:41.414Z,15.00
2022-08-30T03:49:24.532Z,15.00
2022-08-30T03:53:06.589Z,15.00
2022-08-30T03:56:48.665Z,14.90
2022-08-30T04:00:30.641Z,14.90
2022-08-30T04:04:13.884Z,14.90
2022-08-30T04:07:58.244Z,14.80
2022-08-30T04:11:40.444Z,14.70
2022-08-30T04:15:22.242Z,14.70
2022-08-30T04:19:04.608Z,14.70
2022-08-30T04:22:46.415Z,14.60
2022-08-30T04:26:29.493Z,14.60
2022-08-30T04:30:13.152Z,14.50
2022-08-30T04:33:55.252Z,14.50
2022-08-30T04:37:38.876Z,14.40
2022-08-30T04:41:22.923Z,14.40
2022-08-30T04:45:11.308Z,14.40
2022-08-30T04:48:53.330Z,14.30
2022-08-30T04:52:35.498Z,14.30
2022-08-30T04:56:22.253Z,14.20
2022-08-30T05:00:07.543Z,14.20
2022-08-30T05:03:50.676Z,14.20
2022-08-30T05:07:33.191Z,14.10
2022-08-30T05:11:17.031Z,14.10
2022-08-30T05:14:58.977Z,14.10
2022-08-30T05:18:40.881Z,14.10
2022-08-30T05:22:22.801Z,14.00
2022-08-30T05:26:10.463Z,14.00
2022-08-30T05:29:52.292Z,14.00
2022-08-30T05:33:38.762Z,14.00
2022-08-30T05:37:20.980Z,13.90
2022-08-30T05:41:07.803Z,13.90
2022-08-30T05:44:54.635Z,13.90
2022-08-30T05:48:37.063Z,13.90
2022-08-30T05:52:19.004Z,13.90
2022-08-30T05:56:05.852Z,13.90
2022-08-30T05:59:48.100Z,13.90
2022-08-30T06:03:32.522Z,13.90
2022-08-30T06:07:15.836Z,13.90
2022-08-30T06:10:59.033Z,13.90
2022-08-30T06:14:40.909Z,13.90
2022-08-30T06:18:28.794Z,13.80
2022-08-30T06:22:10.759Z,13.90
2022-08-30T06:25:52.630Z,13.90
2022-08-30T06:29:34.620Z,13.90
2022-08-30T06:33:16.473Z,13.90
2022-08-30T06:36:58.285Z,14.00
2022-08-30T06:40:40.247Z,14.00
2022-08-30T06:44:22.083Z,14.00
2022-08-30T06:48:03.989Z,14.00
2022-08-30T06:51:45.858Z,14.10
2022-08-30T06:55:27.713Z,14.10
2022-08-30T06:59:09.910Z,14.10
2022-08-30T07:02:51.780Z,14.20
2022-08-30T07:06:34.442Z,14.30
2022-08-30T07:10:16.795Z,14.30
2022-08-30T07:13:59.116Z,14.40
2022-08-30T07:17:59.808Z,14.40
2022-08-30T07:21:43.922Z,14.50
2022-08-30T07:25:26.413Z,14.60
2022-08-30T07:29:10.104Z,14.70
2022-08-30T07:32:51.947Z,14.80
2022-08-30T07:36:35.283Z,15.00
2022-08-30T07:40:17.385Z,15.10
2022-08-30T07:43:59.516Z,15.20
2022-08-30T07:47:41.596Z,15.30
2022-08-30T07:51:26.488Z,15.40
2022-08-30T07:55:09.117Z,15.40
2022-08-30T07:58:51.802Z,15.50
2022-08-30T08:02:34.943Z,15.70
2022-08-30T08:06:19.168Z,15.80
2022-08-30T08:10:01.686Z,16.00
2022-08-30T08:13:54.147Z,16.20
2022-08-30T08:17:36.607Z,16.40
2022-08-30T08:21:18.568Z,16.70
2022-08-30T08:25:00.539Z,16.90
2022-08-30T08:28:43.131Z,17.10
2022-08-30T08:32:25.160Z,17.30
2022-08-30T08:36:09.366Z,17.70
2022-08-30T08:39:57.298Z,18.00
2022-08-30T08:43:40.657Z,18.20
2022-08-30T08:47:40.037Z,18.20
2022-08-30T08:51:46.018Z,18.30
2022-08-30T08:55:29.929Z,18.30
2022-08-30T08:59:14.773Z,18.30
2022-08-30T09:03:03.061Z,18.40
2022-08-30T09:07:11.303Z,18.60
2022-08-30T09:11:05.876Z,18.80
2022-08-30T09:14:54.453Z,19.10
2022-08-30T09:18:54.465Z,19.20
2022-08-30T09:22:40.720Z,19.30
2022-08-30T09:26:31.008Z,19.50
2022-08-30T09:30:17.782Z,19.70
2022-08-30T09:34:06.694Z,20.10
2022-08-30T09:37:57.847Z,20.40
2022-08-30T09:41:43.644Z,20.60
2022-08-30T09:45:32.761Z,20.70
2022-08-30T09:49:33.411Z,21.00
2022-08-30T09:53:23.373Z,21.30
2022-08-30T09:57:33.669Z,21.70
2022-08-30T10:01:23.790Z,22.50
2022-08-30T10:05:13.536Z,23.60
2022-08-30T10:09:20.038Z,24.40
2022-08-30T10:13:35.146Z,25.00
2022-08-30T10:17:45.693Z,25.60
2022-08-30T10:22:02.669Z,25.70
2022-08-30T10:26:05.976Z,25.70
2022-08-30T10:29:53.479Z,25.90
2022-08-30T10:33:43.527Z,26.00
2022-08-30T10:37:31.891Z,26.00
2022-08-30T10:41:32.112Z,25.70
2022-08-30T10:45:16.675Z,25.60
2022-08-30T10:49:02.427Z,25.50
2022-08-30T10:52:56.373Z,25.30
2022-08-30T10:56:42.998Z,25.20
2022-08-30T11:00:52.935Z,25.40
2022-08-30T11:04:40.569Z,25.90
2022-08-30T11:08:42.755Z,26.00
2022-08-30T11:12:49.957Z,25.80
2022-08-30T11:16:41.679Z,25.60
2022-08-30T11:20:37.582Z,25.60
2022-08-30T11:24:23.715Z,25.80
2022-08-30T11:28:06.420Z,25.90
2022-08-30T11:31:48.288Z,25.70
2022-08-30T11:35:46.050Z,25.50
2022-08-30T11:39:48.266Z,25.20
2022-08-30T11:43:39.855Z,25.00
2022-08-30T11:47:50.822Z,24.80
2022-08-30T11:51:58.276Z,24.80
2022-08-30T11:56:08.698Z,24.80
2022-08-30T12:00:02.404Z,24.80
2022-08-30T12:03:45.708Z,24.70
2022-08-30T12:08:00.339Z,24.50
2022-08-30T12:11:56.488Z,24.40
2022-08-30T12:16:03.437Z,24.10
2022-08-30T12:19:50.238Z,24.00
2022-08-30T12:24:30.369Z,23.90
2022-08-30T12:28:26.146Z,24.00
2022-08-30T12:32:22.378Z,24.00
2022-08-30T12:36:04.494Z,24.00
2022-08-30T12:39:53.520Z,24.10
2022-08-30T12:43:41.394Z,24.00
2022-08-30T12:47:32.880Z,24.10
2022-08-30T12:51:47.216Z,24.10
2022-08-30T12:55:32.849Z,24.00
2022-08-30T12:59:51.829Z,24.00
2022-08-30T13:03:39.412Z,24.10
2022-08-30T13:07:34.594Z,24.40
2022-08-30T13:11:25.035Z,24.60
2022-08-30T13:15:20.355Z,24.90
2022-08-30T13:19:19.903Z,25.00
2022-08-30T13:23:10.640Z,25.00
2022-08-30T13:26:55.805Z,24.90
2022-08-30T13:30:37.939Z,24.90
2022-08-30T13:34:22.502Z,24.90
2022-08-30T13:38:04.375Z,25.00
2022-08-30T13:41:46.275Z,24.90
2022-08-30T13:45:44.421Z,24.90
2022-08-30T13:49:50.703Z,24.90
2022-08-30T14:02:07.663Z,24.90
2022-08-30T14:06:15.701Z,25.00
2022-08-30T14:09:42.140Z,25.10
2022-08-30T14:13:25.491Z,25.20
2022-08-30T14:17:09.510Z,25.20
2022-08-30T14:20:51.760Z,25.20
2022-08-30T14:24:33.720Z,25.10
2022-08-30T14:28:16.928Z,25.20
2022-08-30T14:32:00.396Z,25.20
2022-08-30T14:35:42.449Z,25.10
2022-08-30T14:39:24.569Z,25.10
2022-08-30T14:43:07.028Z,25.20
2022-08-30T14:46:50.932Z,25.30
2022-08-30T14:50:32.935Z,25.90
2022-08-30T14:54:20.733Z,26.20
2022-08-30T14:58:02.578Z,26.10
2022-08-30T15:01:46.718Z,26.00
2022-08-30T15:05:28.596Z,25.80
2022-08-30T15:09:13.084Z,25.70
2022-08-30T15:12:56.341Z,25.80
2022-08-30T15:16:39.222Z,25.90
2022-08-30T15:20:21.324Z,25.90
2022-08-30T15:24:05.332Z,25.80
2022-08-30T15:27:49.238Z,25.60
2022-08-30T15:31:31.917Z,25.60
2022-08-30T15:35:13.764Z,25.50
2022-08-30T15:38:56.175Z,26.00
2022-08-30T15:42:38.007Z,26.30
2022-08-30T15:46:29.800Z,26.30
2022-08-30T15:50:11.988Z,26.20
2022-08-30T15:53:53.875Z,26.00
2022-08-30T15:57:35.745Z,25.90
2022-08-30T16:01:19.709Z,25.90
2022-08-30T16:05:05.836Z,25.80
2022-08-30T16:08:48.535Z,25.80
2022-08-30T16:12:30.356Z,25.70
2022-08-30T16:16:12.757Z,25.60
2022-08-30T16:19:58.144Z,25.60
2022-08-30T16:23:41.794Z,25.60
2022-08-30T16:27:25.035Z,25.70
2022-08-30T16:31:07.126Z,25.80
2022-08-30T16:34:49.903Z,25.80
2022-08-30T16:38:32.916Z,25.80
2022-08-30T16:42:21.022Z,25.90
2022-08-30T16:46:05.837Z,25.80
2022-08-30T16:49:48.756Z,25.70
2022-08-30T16:53:32.160Z,25.70
2022-08-30T16:57:14.127Z,25.60
2022-08-30T17:00:56.007Z,25.50
2022-08-30T17:04:37.947Z,25.40
2022-08-30T17:08:19.772Z,25.40
2022-08-30T17:12:01.762Z,25.40
2022-08-30T17:15:47.594Z,25.30
2022-08-30T17:19:29.915Z,25.40
2022-08-30T17:23:12.951Z,25.40
2022-08-30T17:26:54.993Z,25.50
2022-08-30T17:30:37.684Z,25.50
2022-08-30T17:34:21.961Z,25.60
2022-08-30T17:38:04.212Z,25.50
2022-08-30T17:41:50.756Z,25.40
2022-08-30T17:45:33.571Z,25.40
2022-08-30T17:49:15.453Z,25.30
2022-08-30T17:52:57.320Z,25.20
2022-08-30T17:56:43.558Z,25.10
2022-08-30T18:00:25.464Z,25.00
2022-08-30T18:04:07.939Z,24.80
2022-08-30T18:07:49.849Z,24.70
2022-08-30T18:11:31.946Z,24.50
2022-08-30T18:15:15.612Z,24.40
2022-08-30T18:18:58.110Z,24.30
2022-08-30T18:22:40.005Z,24.20
2022-08-30T18:26:24.289Z,24.10
2022-08-30T18:30:08.119Z,24.00
2022-08-30T18:33:53.772Z,23.90
2022-08-30T18:37:35.777Z,23.90
2022-08-30T18:41:17.636Z,23.80
2022-08-30T18:44:59.615Z,23.70
2022-08-30T18:48:53.692Z,23.60
2022-08-30T18:52:35.844Z,23.40
2022-08-30T18:56:17.884Z,23.30
2022-08-30T18:59:59.878Z,23.10
2022-08-30T19:03:42.475Z,23.00
2022-08-30T19:07:29.904Z,22.80
2022-08-30T19:11:16.665Z,22.70
2022-08-30T19:14:59.390Z,22.60
2022-08-30T19:18:41.845Z,22.40
2022-08-30T19:22:26.727Z,22.40
2022-08-30T19:26:13.056Z,22.20
2022-08-30T19:29:58.046Z,22.10
2022-08-30T19:33:41.227Z,22.00
2022-08-30T19:37:23.223Z,21.90
2022-08-30T19:41:05.395Z,21.90
2022-08-30T19:44:51.440Z,21.80
2022-08-30T19:48:36.724Z,21.70
2022-08-30T19:52:22.136Z,21.60
2022-08-30T19:56:04.411Z,21.50
2022-08-30T19:59:46.212Z,21.40
2022-08-30T20:03:28.253Z,21.30
2022-08-30T20:07:10.734Z,21.30
2022-08-30T20:10:52.597Z,21.20
2022-08-30T20:14:35.080Z,21.10
2022-08-30T20:18:16.918Z,21.00
2022-08-30T20:22:07.696Z,21.00
2022-08-30T20:25:51.571Z,21.00
2022-08-30T20:29:34.461Z,20.90
2022-08-30T20:33:17.364Z,20.80
2022-08-30T20:36:59.181Z,20.80
2022-08-30T20:40:41.506Z,20.70
2022-08-30T20:44:23.955Z,20.60
2022-08-30T20:48:06.376Z,20.60
2022-08-30T20:51:52.758Z,20.50
2022-08-30T20:55:34.938Z,20.50
2022-08-30T20:59:17.043Z,20.40
2022-08-30T21:02:58.928Z,20.30
2022-08-30T21:06:40.804Z,20.20
2022-08-30T21:10:23.559Z,20.10
2022-08-30T21:14:05.617Z,20.00
2022-08-30T21:17:47.963Z,20.00
2022-08-30T21:21:32.180Z,19.90
2022-08-30T21:25:14.051Z,19.90
2022-08-30T21:28:56.163Z,19.80
2022-08-30T21:32:38.032Z,19.80
2022-08-30T21:36:39.737Z,19.70
2022-08-30T21:40:22.056Z,19.60
2022-08-30T21:44:10.938Z,19.60
2022-08-30T21:47:52.780Z,19.50
2022-08-30T21:51:40.185Z,19.50
2022-08-30T21:55:22.085Z,19.50
2022-08-30T21:59:05.939Z,19.40
2022-08-30T22:02:49.312Z,19.40
2022-08-30T22:06:37.368Z,19.40
2022-08-30T22:10:21.168Z,19.30
2022-08-30T22:14:06.590Z,19.30
2022-08-30T22:17:48.501Z,19.20
2022-08-30T22:21:33.263Z,19.20
2022-08-30T22:25:15.358Z,19.10
2022-08-30T22:28:57.673Z,19.10
2022-08-30T22:32:40.115Z,19.00
2022-08-30T22:36:32.562Z,19.00
2022-08-30T22:40:14.858Z,18.90
2022-08-30T22:43:57.053Z,18.90
2022-08-30T22:47:38.964Z,18.80
2022-08-30T22:51:22.357Z,18.80
2022-08-30T22:55:04.680Z,18.80
2022-08-30T22:58:46.992Z,18.80
2022-08-30T23:02:28.908Z,18.70
2022-08-30T23:06:10.752Z,18.70
2022-08-30T23:09:52.612Z,18.70
2022-08-30T23:13:34.697Z,18.60
2022-08-30T23:17:16.671Z,18.60
2022-08-30T23:21:07.163Z,18.60
2022-08-30T23:25:15.870Z,18.50
2022-08-30T23:29:16.786Z,18.50
2022-08-30T23:33:17.322Z,18.40
2022-08-30T23:37:17.645Z,18.30
2022-08-30T23:41:18.028Z,18.30
2022-08-30T23:45:18.228Z,18.20
2022-08-30T23:49:18.659Z,18.10
2022-08-30T23:53:19.609Z,18.10
2022-08-30T23:57:20.108Z,18.00
